createdAt,value
2018-12-20T00:01:15.487Z,-0.28
2018-12-20T00:03:43.938Z,-0.31
2018-12-20T00:06:12.453Z,-0.31
2018-12-20T00:08:40.884Z,-0.29
2018-12-20T00:11:09.444Z,-0.29
2018-12-20T00:13:38.032Z,-0.30
2018-12-20T00:16:06.519Z,-0.30
2018-12-20T00:18:35.321Z,-0.28
2018-12-20T00:21:03.868Z,-0.28
2018-12-20T00:23:32.334Z,-3.86
2018-12-20T00:26:00.886Z,-0.28
2018-12-20T00:28:29.408Z,-0.32
2018-12-20T00:30:57.973Z,-0.33
2018-12-20T00:33:26.886Z,-0.37
2018-12-20T00:35:55.413Z,-0.36
2018-12-20T00:38:23.879Z,-0.34
2018-12-20T00:40:52.836Z,-0.34
2018-12-20T00:43:21.386Z,-0.35
2018-12-20T00:45:49.908Z,-0.36
2018-12-20T00:48:18.441Z,-0.36
2018-12-20T00:50:46.935Z,-0.40
2018-12-20T00:53:15.776Z,-0.41
2018-12-20T00:55:44.256Z,-0.43
2018-12-20T00:58:12.813Z,-0.43
2018-12-20T01:00:41.831Z,-0.36
2018-12-20T01:03:10.460Z,-0.37
2018-12-20T01:05:39.054Z,-0.36
2018-12-20T01:08:07.644Z,-0.34
2018-12-20T01:10:36.368Z,-0.34
2018-12-20T01:13:04.947Z,-0.34
2018-12-20T01:15:33.681Z,-0.34
2018-12-20T01:18:02.159Z,-0.32
2018-12-20T01:20:30.825Z,-0.30
2018-12-20T01:22:59.598Z,-0.30
2018-12-20T01:25:28.136Z,-0.28
2018-12-20T01:27:57.538Z,-0.28
2018-12-20T01:30:26.517Z,-0.25
2018-12-20T01:32:55.264Z,-0.25
2018-12-20T01:35:23.753Z,-0.25
2018-12-20T01:37:52.422Z,-0.27
2018-12-20T01:40:21.119Z,-0.27
2018-12-20T01:42:50.869Z,-0.24
2018-12-20T01:45:19.590Z,-0.25
2018-12-20T01:47:48.436Z,-0.22
2018-12-20T01:50:17.812Z,-0.24
2018-12-20T01:52:46.242Z,-0.22
2018-12-20T01:55:15.168Z,-0.19
2018-12-20T01:57:43.955Z,-0.21
2018-12-20T02:00:12.691Z,-0.21
2018-12-20T02:02:41.254Z,-0.23
2018-12-20T02:05:09.809Z,-0.24
2018-12-20T02:07:38.795Z,-0.24
2018-12-20T02:10:07.396Z,-0.28
2018-12-20T02:12:36.091Z,-0.22
2018-12-20T02:15:06.722Z,-0.22
2018-12-20T02:17:35.605Z,-0.25
2018-12-20T02:20:05.102Z,-0.32
2018-12-20T02:22:34.035Z,-0.34
2018-12-20T02:25:02.909Z,-0.35
2018-12-20T02:27:31.407Z,-0.37
2018-12-20T02:29:59.987Z,-0.36
2018-12-20T02:32:28.467Z,-0.37
2018-12-20T02:34:56.955Z,-0.38
2018-12-20T02:37:25.393Z,-0.38
2018-12-20T02:39:53.980Z,-0.35
2018-12-20T02:42:22.485Z,-0.36
2018-12-20T02:44:51.034Z,-0.32
2018-12-20T02:47:22.098Z,-0.35
2018-12-20T02:49:50.754Z,-0.36
2018-12-20T02:52:19.240Z,-0.37
2018-12-20T02:54:47.680Z,-0.35
2018-12-20T02:57:16.192Z,-0.38
2018-12-20T02:59:44.689Z,-0.38
2018-12-20T03:02:13.244Z,-0.37
2018-12-20T03:04:41.823Z,-0.36
2018-12-20T03:07:10.535Z,-0.37
2018-12-20T03:09:39.148Z,-0.35
2018-12-20T03:12:08.168Z,-0.37
2018-12-20T03:14:36.974Z,-0.59
2018-12-20T03:17:07.319Z,-0.35
2018-12-20T03:19:35.972Z,-0.36
2018-12-20T03:22:04.690Z,-0.47
2018-12-20T03:24:33.761Z,-0.53
2018-12-20T03:27:02.483Z,-0.55
2018-12-20T03:29:31.517Z,-0.57
2018-12-20T03:32:00.181Z,-0.55
2018-12-20T03:34:28.822Z,-0.55
2018-12-20T03:36:57.575Z,-0.53
2018-12-20T03:39:26.114Z,-0.52
2018-12-20T03:41:54.588Z,-0.52
2018-12-20T03:44:23.159Z,-0.51
2018-12-20T03:46:51.721Z,-0.53
2018-12-20T03:49:20.259Z,-0.55
2018-12-20T03:51:49.206Z,-0.51
2018-12-20T03:54:17.754Z,-0.50
2018-12-20T03:56:46.485Z,-0.49
2018-12-20T03:59:15.011Z,-0.46
2018-12-20T04:01:43.621Z,-0.45
2018-12-20T04:04:12.275Z,-0.45
2018-12-20T04:06:40.755Z,-0.48
2018-12-20T04:09:09.195Z,-0.46
2018-12-20T04:11:37.967Z,-0.43
2018-12-20T04:14:06.524Z,-0.44
2018-12-20T04:16:35.218Z,-0.44
2018-12-20T04:19:04.167Z,-0.38
2018-12-20T04:21:32.808Z,-0.59
2018-12-20T04:24:01.590Z,-0.67
2018-12-20T04:26:30.324Z,-0.70
2018-12-20T04:28:58.997Z,-0.69
2018-12-20T04:31:27.645Z,-0.65
2018-12-20T04:33:56.926Z,-0.63
2018-12-20T04:36:25.860Z,-0.62
2018-12-20T04:38:56.412Z,-0.62
2018-12-20T04:41:25.962Z,-0.61
2018-12-20T04:43:54.856Z,-0.61
2018-12-20T04:46:23.745Z,-0.61
2018-12-20T04:48:52.534Z,-0.59
2018-12-20T04:51:21.131Z,-0.58
2018-12-20T04:53:49.673Z,-0.58
2018-12-20T04:56:18.636Z,-0.61
2018-12-20T04:58:47.317Z,-0.63
2018-12-20T05:01:15.932Z,-0.61
2018-12-20T05:03:44.494Z,-0.63
2018-12-20T05:06:13.001Z,-0.63
2018-12-20T05:08:41.781Z,-0.68
2018-12-20T05:11:10.315Z,-0.69
2018-12-20T05:13:38.772Z,-0.69
2018-12-20T05:16:07.224Z,-0.71
2018-12-20T05:18:36.819Z,-0.70
2018-12-20T05:21:05.673Z,-0.69
2018-12-20T05:23:34.643Z,-0.68
2018-12-20T05:26:03.375Z,-0.67
2018-12-20T05:28:32.153Z,-0.64
2018-12-20T05:31:00.772Z,-0.65
2018-12-20T05:33:29.541Z,-0.65
2018-12-20T05:35:58.012Z,-0.65
2018-12-20T05:38:26.551Z,-0.63
2018-12-20T05:40:55.768Z,-0.61
2018-12-20T05:43:24.295Z,-0.66
2018-12-20T05:45:53.127Z,-0.62
2018-12-20T05:48:22.706Z,-0.63
2018-12-20T05:50:51.268Z,-0.65
2018-12-20T05:53:19.974Z,-0.67
2018-12-20T05:55:48.782Z,-0.66
2018-12-20T05:58:17.631Z,-0.62
2018-12-20T06:00:46.627Z,-0.64
2018-12-20T06:03:15.235Z,-0.63
2018-12-20T06:05:43.757Z,-0.66
2018-12-20T06:08:12.523Z,-0.66
2018-12-20T06:10:41.222Z,-0.65
2018-12-20T06:13:09.978Z,-0.64
2018-12-20T06:15:39.131Z,-0.65
2018-12-20T06:18:07.954Z,-0.63
2018-12-20T06:20:36.720Z,-0.61
2018-12-20T06:23:05.259Z,-0.59
2018-12-20T06:25:34.211Z,-0.57
2018-12-20T06:28:02.635Z,-0.59
2018-12-20T06:30:31.110Z,-0.57
2018-12-20T06:32:59.559Z,-0.56
2018-12-20T06:35:29.719Z,-0.59
2018-12-20T06:37:58.866Z,-0.54
2018-12-20T06:40:27.522Z,-0.55
2018-12-20T06:42:55.964Z,-0.51
2018-12-20T06:45:24.447Z,-0.48
2018-12-20T06:47:52.909Z,-0.46
2018-12-20T06:50:21.335Z,-0.25
2018-12-20T06:52:49.836Z,0.23
2018-12-20T06:55:19.062Z,0.25
2018-12-20T06:57:47.490Z,0.49
2018-12-20T07:00:15.965Z,0.53
2018-12-20T07:02:44.425Z,0.53
2018-12-20T07:05:12.836Z,0.60
2018-12-20T07:07:41.327Z,0.68
2018-12-20T07:10:09.748Z,0.72
2018-12-20T07:12:38.691Z,0.69
2018-12-20T07:15:10.613Z,0.57
2018-12-20T07:17:39.044Z,0.46
2018-12-20T07:20:07.811Z,0.29
2018-12-20T07:22:36.432Z,0.15
2018-12-20T07:25:06.695Z,0.11
2018-12-20T07:27:36.405Z,0.08
2018-12-20T07:30:09.715Z,0.02
2018-12-20T07:32:38.204Z,-0.03
2018-12-20T07:35:07.580Z,-0.08
2018-12-20T07:37:36.121Z,-0.13
2018-12-20T07:40:07.478Z,-0.15
2018-12-20T07:42:35.988Z,-0.10
2018-12-20T07:45:05.701Z,-0.08
2018-12-20T07:47:34.268Z,-0.05
2018-12-20T07:50:02.854Z,-0.07
2018-12-20T07:52:31.658Z,-0.07
2018-12-20T07:55:00.374Z,-0.05
2018-12-20T07:57:28.856Z,-0.02
2018-12-20T07:59:58.092Z,-0.03
2018-12-20T08:02:26.525Z,-0.02
2018-12-20T08:04:55.031Z,0.00
2018-12-20T08:07:24.006Z,-0.03
2018-12-20T08:09:52.434Z,-0.05
2018-12-20T08:12:20.937Z,-0.10
2018-12-20T08:14:49.491Z,-0.08
2018-12-20T08:17:17.965Z,-0.08
2018-12-20T08:19:46.480Z,-0.09
2018-12-20T08:22:14.930Z,-0.11
2018-12-20T08:24:43.636Z,-0.10
2018-12-20T08:27:12.119Z,-0.09
2018-12-20T08:29:40.845Z,-0.15
2018-12-20T08:32:09.300Z,-0.17
2018-12-20T08:34:37.862Z,-0.10
2018-12-20T08:37:06.316Z,-0.08
2018-12-20T08:39:34.752Z,0.02
2018-12-20T08:42:03.235Z,0.05
2018-12-20T08:44:31.956Z,0.07
2018-12-20T08:47:02.194Z,0.13
2018-12-20T08:49:30.741Z,0.16
2018-12-20T08:52:00.506Z,0.24
2018-12-20T08:54:28.955Z,0.36
2018-12-20T08:56:57.446Z,0.38
2018-12-20T08:59:25.896Z,0.40
2018-12-20T09:01:55.363Z,0.40
2018-12-20T09:04:24.047Z,0.41
2018-12-20T09:06:52.503Z,0.37
2018-12-20T09:09:21.144Z,0.45
2018-12-20T09:11:49.860Z,0.54
2018-12-20T09:14:18.305Z,0.53
2018-12-20T09:16:47.017Z,0.62
2018-12-20T09:19:15.502Z,0.68
2018-12-20T09:21:44.245Z,0.72
2018-12-20T09:24:12.697Z,0.74
2018-12-20T09:26:41.188Z,0.76
2018-12-20T09:29:09.632Z,0.85
2018-12-20T09:31:38.088Z,0.97
2018-12-20T09:34:06.603Z,0.99
2018-12-20T09:36:35.065Z,1.02
2018-12-20T09:39:07.132Z,1.08
2018-12-20T09:41:35.540Z,1.14
2018-12-20T09:44:04.310Z,1.18
2018-12-20T09:46:34.708Z,1.22
2018-12-20T09:49:03.421Z,1.29
2018-12-20T09:51:32.742Z,1.40
2018-12-20T09:54:01.374Z,1.43
2018-12-20T09:56:29.812Z,1.49
2018-12-20T09:58:58.272Z,1.59
2018-12-20T10:01:26.720Z,1.59
2018-12-20T10:03:55.945Z,1.67
2018-12-20T10:06:24.901Z,1.67
2018-12-20T10:08:53.427Z,1.63
2018-12-20T10:11:22.076Z,1.57
2018-12-20T10:13:51.646Z,1.71
2018-12-20T10:16:20.136Z,1.79
2018-12-20T10:18:48.552Z,1.77
2018-12-20T10:21:16.987Z,1.74
2018-12-20T10:23:45.528Z,1.72
2018-12-20T10:26:13.984Z,1.76
2018-12-20T10:28:42.432Z,1.81
2018-12-20T10:31:10.918Z,1.88
2018-12-20T10:33:40.564Z,1.98
2018-12-20T10:36:09.065Z,1.96
2018-12-20T10:38:37.569Z,2.05
2018-12-20T10:41:06.245Z,2.15
2018-12-20T10:43:34.660Z,2.21
2018-12-20T10:46:03.156Z,2.27
2018-12-20T10:48:31.851Z,2.37
2018-12-20T10:51:00.320Z,2.42
2018-12-20T10:53:28.825Z,2.24
2018-12-20T10:55:57.273Z,2.20
2018-12-20T10:58:25.717Z,2.35
2018-12-20T11:00:59.775Z,2.25
2018-12-20T11:03:34.504Z,2.27
2018-12-20T11:06:05.775Z,2.27
2018-12-20T11:08:36.300Z,2.26
2018-12-20T11:11:09.319Z,2.46
2018-12-20T11:13:37.748Z,2.60
2018-12-20T11:16:06.365Z,2.69
2018-12-20T11:18:35.123Z,2.75
2018-12-20T11:21:03.568Z,2.92
2018-12-20T11:23:32.013Z,3.02
2018-12-20T11:26:02.148Z,3.03
2018-12-20T11:28:30.613Z,2.98
2018-12-20T11:30:59.079Z,3.00
2018-12-20T11:33:28.072Z,2.93
2018-12-20T11:35:56.556Z,3.01
2018-12-20T11:38:24.990Z,2.96
2018-12-20T11:40:54.646Z,2.97
2018-12-20T11:43:23.331Z,2.95
2018-12-20T11:45:51.774Z,3.03
2018-12-20T11:48:20.270Z,3.19
2018-12-20T11:50:48.708Z,3.13
2018-12-20T11:53:17.178Z,3.15
2018-12-20T11:55:45.662Z,3.21
2018-12-20T11:58:14.091Z,3.20
2018-12-20T12:00:42.775Z,3.13
2018-12-20T12:03:11.268Z,3.10
2018-12-20T12:05:40.050Z,3.11
2018-12-20T12:08:08.499Z,3.17
2018-12-20T12:10:37.009Z,3.09
2018-12-20T12:13:05.447Z,3.02
2018-12-20T12:15:33.907Z,2.89
2018-12-20T12:18:02.430Z,2.80
2018-12-20T12:20:30.904Z,2.86
2018-12-20T12:22:59.352Z,2.90
2018-12-20T12:25:28.020Z,2.81
2018-12-20T12:27:56.472Z,2.79
2018-12-20T12:30:25.463Z,2.79
2018-12-20T12:32:53.960Z,2.75
2018-12-20T12:35:22.464Z,2.74
2018-12-20T12:37:51.185Z,2.72
2018-12-20T12:40:19.659Z,2.88
2018-12-20T12:42:48.108Z,2.93
2018-12-20T12:45:16.526Z,2.93
2018-12-20T12:47:50.515Z,2.89
2018-12-20T12:50:19.114Z,2.85
2018-12-20T12:52:47.570Z,2.74
2018-12-20T12:55:16.080Z,2.59
2018-12-20T12:57:44.501Z,2.46
2018-12-20T13:00:15.244Z,2.35
2018-12-20T13:02:43.831Z,2.25
2018-12-20T13:05:12.540Z,2.21
2018-12-20T13:07:41.199Z,2.11
2018-12-20T13:10:09.663Z,2.12
2018-12-20T13:12:38.112Z,2.15
2018-12-20T13:15:09.961Z,2.16
2018-12-20T13:17:38.438Z,2.18
2018-12-20T13:20:08.932Z,2.14
2018-12-20T13:22:37.353Z,2.15
2018-12-20T13:25:06.383Z,2.21
2018-12-20T13:27:34.848Z,2.25
2018-12-20T13:30:06.199Z,2.28
2018-12-20T13:32:34.703Z,2.37
2018-12-20T13:35:03.204Z,2.41
2018-12-20T13:37:31.903Z,2.44
2018-12-20T13:40:00.580Z,2.47
2018-12-20T13:42:28.968Z,2.48
2018-12-20T13:44:57.420Z,2.51
2018-12-20T13:47:25.868Z,2.47
2018-12-20T13:49:54.326Z,2.43
2018-12-20T13:52:22.821Z,2.36
2018-12-20T13:54:51.266Z,2.31
2018-12-20T13:57:19.668Z,2.26
2018-12-20T13:59:48.180Z,2.23
2018-12-20T14:02:16.660Z,2.19
2018-12-20T14:04:45.207Z,2.13
2018-12-20T14:07:13.689Z,2.08
2018-12-20T14:09:42.130Z,1.99
2018-12-20T14:12:10.735Z,1.94
2018-12-20T14:14:39.200Z,1.91
2018-12-20T14:17:07.684Z,1.88
2018-12-20T14:19:36.140Z,1.86
2018-12-20T14:22:04.636Z,1.33
2018-12-20T14:24:33.090Z,1.77
2018-12-20T14:27:01.528Z,1.77
2018-12-20T14:29:30.016Z,1.74
2018-12-20T14:31:58.448Z,1.71
2018-12-20T14:34:26.934Z,1.54
2018-12-20T14:36:55.423Z,1.59
2018-12-20T14:39:23.879Z,1.53
2018-12-20T14:41:52.334Z,1.52
2018-12-20T14:44:20.832Z,1.49
2018-12-20T14:46:49.287Z,1.50
2018-12-20T14:49:17.736Z,1.48
2018-12-20T14:51:46.211Z,1.47
2018-12-20T14:54:14.839Z,1.46
2018-12-20T14:56:43.339Z,1.45
2018-12-20T14:59:11.826Z,1.45
2018-12-20T15:01:40.277Z,1.44
2018-12-20T15:04:08.733Z,2.13
2018-12-20T15:06:37.379Z,2.54
2018-12-20T15:09:07.077Z,2.92
2018-12-20T15:11:35.564Z,3.07
2018-12-20T15:14:04.659Z,2.97
2018-12-20T15:16:33.079Z,2.63
2018-12-20T15:19:01.533Z,2.35
2018-12-20T15:21:30.016Z,2.13
2018-12-20T15:23:58.467Z,1.98
2018-12-20T15:26:27.146Z,2.17
2018-12-20T15:28:55.951Z,2.15
2018-12-20T15:31:25.149Z,2.27
2018-12-20T15:33:53.606Z,2.30
2018-12-20T15:36:22.308Z,2.25
2018-12-20T15:38:50.767Z,2.18
2018-12-20T15:43:53.107Z,2.15
2018-12-20T15:46:22.317Z,2.06
2018-12-20T15:48:56.392Z,1.94
2018-12-20T15:51:25.545Z,1.81
2018-12-20T15:53:54.892Z,1.69
2018-12-20T15:56:23.369Z,1.55
2018-12-20T15:58:52.916Z,1.47
2018-12-20T16:01:21.440Z,1.41
2018-12-20T16:03:50.308Z,1.42
2018-12-20T16:06:18.887Z,1.33
2018-12-20T16:08:49.292Z,1.25
2018-12-20T16:11:18.140Z,1.22
2018-12-20T16:13:46.612Z,1.18
2018-12-20T16:16:15.176Z,1.14
2018-12-20T16:18:43.705Z,1.12
2018-12-20T16:23:45.872Z,1.15
2018-12-20T16:26:15.116Z,1.16
2018-12-20T16:28:43.587Z,1.16
2018-12-20T16:31:12.160Z,1.14
2018-12-20T16:33:40.831Z,1.12
2018-12-20T16:36:09.536Z,1.12
2018-12-20T16:38:39.077Z,1.12
2018-12-20T16:41:07.619Z,1.12
2018-12-20T16:43:36.747Z,1.13
2018-12-20T16:46:06.495Z,1.14
2018-12-20T16:48:36.196Z,1.11
2018-12-20T16:51:05.220Z,1.15
2018-12-20T16:53:39.774Z,1.15
2018-12-20T16:56:09.576Z,1.13
2018-12-20T16:58:38.072Z,1.13
2018-12-20T17:01:07.096Z,1.12
2018-12-20T17:03:38.759Z,1.13
2018-12-20T17:06:07.316Z,1.14
2018-12-20T17:08:35.959Z,1.37
2018-12-20T17:11:05.058Z,1.31
2018-12-20T17:13:35.163Z,1.28
2018-12-20T17:16:03.710Z,1.23
2018-12-20T17:18:32.410Z,1.18
2018-12-20T17:21:04.043Z,1.14
2018-12-20T17:23:35.738Z,1.10
2018-12-20T17:26:04.914Z,1.10
2018-12-20T17:28:33.951Z,1.05
2018-12-20T17:31:02.962Z,1.02
2018-12-20T17:33:31.710Z,1.01
2018-12-20T17:36:00.713Z,1.00
2018-12-20T17:38:30.035Z,1.04
2018-12-20T17:40:58.685Z,1.00
2018-12-20T17:43:27.526Z,0.97
2018-12-20T17:45:56.388Z,0.97
2018-12-20T17:48:29.066Z,0.94
2018-12-20T17:50:56.574Z,0.92
2018-12-20T17:53:26.133Z,0.90
2018-12-20T17:55:55.890Z,0.88
2018-12-20T17:58:25.132Z,0.89
2018-12-20T18:00:55.602Z,0.90
2018-12-20T18:03:24.970Z,0.89
2018-12-20T18:05:54.271Z,0.88
2018-12-20T18:08:22.942Z,0.89
2018-12-20T18:10:51.657Z,0.89
2018-12-20T18:13:20.300Z,0.90
2018-12-20T18:15:49.264Z,0.92
2018-12-20T18:18:19.337Z,0.94
2018-12-20T18:20:48.665Z,0.93
2018-12-20T18:23:18.179Z,0.94
2018-12-20T18:25:46.929Z,0.95
2018-12-20T18:28:16.562Z,0.97
2018-12-20T18:30:45.397Z,0.96
2018-12-20T18:33:14.055Z,0.97
2018-12-20T18:35:42.728Z,0.99
2018-12-20T18:38:11.286Z,1.00
2018-12-20T18:40:40.717Z,1.00
2018-12-20T18:43:09.375Z,1.02
2018-12-20T18:45:39.059Z,1.02
2018-12-20T18:48:07.721Z,1.08
2018-12-20T18:50:36.442Z,1.02
2018-12-20T18:53:05.843Z,0.97
2018-12-20T18:55:34.567Z,0.94
2018-12-20T18:58:03.147Z,0.91
2018-12-20T19:00:31.926Z,0.95
2018-12-20T19:03:00.496Z,1.03
2018-12-20T19:05:29.032Z,1.02
2018-12-20T19:07:58.551Z,0.96
2018-12-20T19:10:27.247Z,0.92
2018-12-20T19:12:56.040Z,0.89
2018-12-20T19:15:24.859Z,0.88
2018-12-20T19:17:54.707Z,0.86
2018-12-20T19:20:23.348Z,0.85
2018-12-20T19:22:55.070Z,0.87
2018-12-20T19:25:23.708Z,0.72
2018-12-20T19:27:52.431Z,0.70
2018-12-20T19:30:22.218Z,0.69
2018-12-20T19:32:51.357Z,0.66
2018-12-20T19:35:20.036Z,0.68
2018-12-20T19:37:49.137Z,0.70
2018-12-20T19:42:51.341Z,0.77
2018-12-20T19:45:24.365Z,0.79
2018-12-20T19:47:53.028Z,0.94
2018-12-20T19:50:22.364Z,0.96
2018-12-20T19:52:52.128Z,0.96
2018-12-20T19:55:21.095Z,0.94
2018-12-20T19:57:50.272Z,0.91
2018-12-20T20:00:19.287Z,0.88
2018-12-20T20:02:49.089Z,0.84
2018-12-20T20:07:53.390Z,0.79
2018-12-20T20:10:22.838Z,0.78
2018-12-20T20:12:52.799Z,0.76
2018-12-20T20:15:21.569Z,0.75
2018-12-20T20:17:53.593Z,0.70
2018-12-20T20:20:23.062Z,0.66
2018-12-20T20:22:52.111Z,0.61
2018-12-20T20:25:20.806Z,0.63
2018-12-20T20:27:50.476Z,0.63
2018-12-20T20:30:19.068Z,0.61
2018-12-20T20:32:48.017Z,0.61
2018-12-20T20:35:19.507Z,0.59
2018-12-20T20:37:48.186Z,0.56
2018-12-20T20:40:16.955Z,0.56
2018-12-20T20:42:48.133Z,0.52
2018-12-20T20:45:16.923Z,0.51
2018-12-20T20:47:45.547Z,0.47
2018-12-20T20:50:22.400Z,0.46
2018-12-20T20:52:46.978Z,0.45
2018-12-20T20:55:15.677Z,0.44
2018-12-20T20:57:44.485Z,0.42
2018-12-20T21:00:13.321Z,0.42
2018-12-20T21:02:42.350Z,0.43
2018-12-20T21:05:10.984Z,0.42
2018-12-20T21:07:39.605Z,0.40
2018-12-20T21:10:10.064Z,0.36
2018-12-20T21:12:39.329Z,0.31
2018-12-20T21:15:09.478Z,0.24
2018-12-20T21:17:38.076Z,0.20
2018-12-20T21:20:08.441Z,0.19
2018-12-20T21:22:37.069Z,0.22
2018-12-20T21:25:05.881Z,0.21
2018-12-20T21:27:34.711Z,0.23
2018-12-20T21:30:04.109Z,0.26
2018-12-20T21:32:32.715Z,0.29
2018-12-20T21:35:01.285Z,0.39
2018-12-20T21:37:29.961Z,0.33
2018-12-20T21:39:58.566Z,0.31
2018-12-20T21:42:27.097Z,0.29
2018-12-20T21:44:55.614Z,0.29
2018-12-20T21:47:24.216Z,0.30
2018-12-20T21:49:52.740Z,0.28
2018-12-20T21:52:21.253Z,0.30
2018-12-20T21:54:49.862Z,0.24
2018-12-20T21:57:18.368Z,0.21
2018-12-20T21:59:46.918Z,0.13
2018-12-20T22:02:15.452Z,0.11
2018-12-20T22:04:44.326Z,0.07
2018-12-20T22:07:12.831Z,-0.01
2018-12-20T22:09:41.356Z,-0.07
2018-12-20T22:12:09.805Z,-0.17
2018-12-20T22:14:38.287Z,-0.18
2018-12-20T22:17:06.763Z,-0.24
2018-12-20T22:19:35.202Z,-0.27
2018-12-20T22:22:03.640Z,-0.29
2018-12-20T22:24:32.146Z,-0.31
2018-12-20T22:27:00.617Z,-1.15
2018-12-20T22:29:29.707Z,-0.45
2018-12-20T22:31:58.165Z,-0.49
2018-12-20T22:34:26.601Z,-0.56
2018-12-20T22:36:55.046Z,-0.60
2018-12-20T22:39:23.579Z,-0.61
2018-12-20T22:41:52.023Z,-0.61
2018-12-20T22:44:20.494Z,-0.63
2018-12-20T22:46:49.190Z,-0.64
2018-12-20T22:49:17.685Z,-0.67
2018-12-20T22:51:46.133Z,-0.71
2018-12-20T22:54:14.619Z,-0.77
2018-12-20T22:56:43.076Z,-0.77
2018-12-20T22:59:11.556Z,-0.83
2018-12-20T23:01:40.036Z,-0.85
2018-12-20T23:04:09.121Z,-0.86
2018-12-20T23:06:37.554Z,-0.90
2018-12-20T23:09:06.701Z,-0.89
2018-12-20T23:11:35.643Z,-0.80
2018-12-20T23:14:04.176Z,-0.56
2018-12-20T23:16:32.686Z,-0.66
2018-12-20T23:19:01.416Z,-0.66
2018-12-20T23:21:29.886Z,-1.25
2018-12-20T23:23:58.372Z,-0.65
2018-12-20T23:26:26.856Z,-0.64
2018-12-20T23:28:55.546Z,-0.80
2018-12-20T23:31:24.017Z,-0.57
2018-12-20T23:33:52.476Z,-0.62
2018-12-20T23:36:21.175Z,-0.63
2018-12-20T23:38:49.698Z,-0.69
2018-12-20T23:41:18.134Z,-0.72
2018-12-20T23:43:46.889Z,-0.69
2018-12-20T23:46:15.409Z,-0.69
2018-12-20T23:48:43.891Z,-0.64
2018-12-20T23:51:13.761Z,-0.60
2018-12-20T23:53:48.600Z,-0.59
2018-12-20T23:56:17.287Z,-0.62
2018-12-20T23:58:45.737Z,-0.63
